sensor_id;sensor_type;location;lat;lon;timestamp;P1;durP1;ratioP1;P2;durP2;ratioP2
51738;SDS011;37815;52.692;6.226;2022-09-16T00:02:21;1.13;;;0.30;;
51738;SDS011;37815;52.692;6.226;2022-09-16T00:07:21;0.60;;;0.22;;
51738;SDS011;37815;52.692;6.226;2022-09-16T00:12:22;1.73;;;0.20;;
51738;SDS011;37815;52.692;6.226;2022-09-16T00:17:23;1.23;;;0.30;;
51738;SDS011;37815;52.692;6.226;2022-09-16T00:22:24;0.32;;;0.30;;
51738;SDS011;37815;52.692;6.226;2022-09-16T00:27:26;1.15;;;0.30;;
51738;SDS011;37815;52.692;6.226;2022-09-16T00:32:26;1.63;;;0.30;;
51738;SDS011;37815;52.692;6.226;2022-09-16T00:37:27;0.75;;;0.20;;
51738;SDS011;37815;52.692;6.226;2022-09-16T00:42:35;1.30;;;0.30;;
51738;SDS011;37815;52.692;6.226;2022-09-16T00:47:39;0.80;;;0.38;;
51738;SDS011;37815;52.692;6.226;2022-09-16T00:52:45;1.60;;;0.57;;
51738;SDS011;37815;52.692;6.226;2022-09-16T00:57:47;1.73;;;0.40;;
51738;SDS011;37815;52.692;6.226;2022-09-16T01:02:48;1.75;;;0.38;;
51738;SDS011;37815;52.692;6.226;2022-09-16T01:07:50;1.67;;;0.22;;
51738;SDS011;37815;52.692;6.226;2022-09-16T01:12:53;1.17;;;0.28;;
51738;SDS011;37815;52.692;6.226;2022-09-16T01:18:00;0.93;;;0.30;;
51738;SDS011;37815;52.692;6.226;2022-09-16T01:23:40;1.50;;;0.38;;
51738;SDS011;37815;52.692;6.226;2022-09-16T01:44:42;0.93;;;0.20;;
51738;SDS011;37815;52.692;6.226;2022-09-16T01:50:08;1.08;;;0.30;;
51738;SDS011;37815;52.692;6.226;2022-09-16T01:55:29;1.42;;;0.35;;
51738;SDS011;37815;52.692;6.226;2022-09-16T02:00:36;0.52;;;0.20;;
51738;SDS011;37815;52.692;6.226;2022-09-16T02:05:46;1.08;;;0.25;;
51738;SDS011;37815;52.692;6.226;2022-09-16T02:10:51;1.63;;;0.28;;
51738;SDS011;37815;52.692;6.226;2022-09-16T02:15:59;1.35;;;0.38;;
51738;SDS011;37815;52.692;6.226;2022-09-16T02:21:05;1.00;;;0.30;;
51738;SDS011;37815;52.692;6.226;2022-09-16T02:26:10;1.55;;;0.32;;
51738;SDS011;37815;52.692;6.226;2022-09-16T02:31:16;0.73;;;0.20;;
51738;SDS011;37815;52.692;6.226;2022-09-16T02:36:25;1.10;;;0.38;;
51738;SDS011;37815;52.692;6.226;2022-09-16T02:41:27;1.13;;;0.30;;
51738;SDS011;37815;52.692;6.226;2022-09-16T02:52:17;2.50;;;0.40;;
51738;SDS011;37815;52.692;6.226;2022-09-16T02:57:32;1.55;;;0.40;;
51738;SDS011;37815;52.692;6.226;2022-09-16T03:02:33;1.58;;;0.30;;
51738;SDS011;37815;52.692;6.226;2022-09-16T03:07:34;1.58;;;0.20;;
51738;SDS011;37815;52.692;6.226;2022-09-16T03:12:44;2.05;;;0.30;;
51738;SDS011;37815;52.692;6.226;2022-09-16T03:34:16;1.27;;;0.47;;
51738;SDS011;37815;52.692;6.226;2022-09-16T03:39:22;1.52;;;0.30;;
51738;SDS011;37815;52.692;6.226;2022-09-16T03:44:30;1.38;;;0.32;;
51738;SDS011;37815;52.692;6.226;2022-09-16T03:49:32;0.38;;;0.20;;
51738;SDS011;37815;52.692;6.226;2022-09-16T03:54:34;0.50;;;0.20;;
51738;SDS011;37815;52.692;6.226;2022-09-16T03:59:35;0.63;;;0.30;;
51738;SDS011;37815;52.692;6.226;2022-09-16T04:04:36;1.20;;;0.20;;
51738;SDS011;37815;52.692;6.226;2022-09-16T04:09:37;3.70;;;0.60;;
51738;SDS011;37815;52.692;6.226;2022-09-16T04:14:38;0.10;;;0.10;;
51738;SDS011;37815;52.692;6.226;2022-09-16T04:19:39;0.40;;;0.20;;
51738;SDS011;37815;52.692;6.226;2022-09-16T04:24:39;0.10;;;0.10;;
51738;SDS011;37815;52.692;6.226;2022-09-16T04:29:40;1.40;;;0.30;;
51738;SDS011;37815;52.692;6.226;2022-09-16T04:34:41;1.10;;;0.38;;
51738;SDS011;37815;52.692;6.226;2022-09-16T04:39:42;0.40;;;0.20;;
51738;SDS011;37815;52.692;6.226;2022-09-16T04:44:43;0.60;;;0.20;;
51738;SDS011;37815;52.692;6.226;2022-09-16T04:49:43;2.22;;;0.32;;
51738;SDS011;37815;52.692;6.226;2022-09-16T04:54:44;1.20;;;0.50;;
51738;SDS011;37815;52.692;6.226;2022-09-16T04:59:45;0.50;;;0.10;;
51738;SDS011;37815;52.692;6.226;2022-09-16T05:04:46;2.35;;;0.30;;
51738;SDS011;37815;52.692;6.226;2022-09-16T05:09:46;2.83;;;0.28;;
51738;SDS011;37815;52.692;6.226;2022-09-16T05:14:47;0.90;;;0.30;;
51738;SDS011;37815;52.692;6.226;2022-09-16T05:19:48;3.25;;;0.30;;
51738;SDS011;37815;52.692;6.226;2022-09-16T05:24:48;1.70;;;0.50;;
51738;SDS011;37815;52.692;6.226;2022-09-16T05:29:49;2.70;;;0.22;;
51738;SDS011;37815;52.692;6.226;2022-09-16T05:34:50;0.70;;;0.30;;
51738;SDS011;37815;52.692;6.226;2022-09-16T05:39:50;4.25;;;0.50;;
51738;SDS011;37815;52.692;6.226;2022-09-16T05:44:51;1.27;;;0.20;;
51738;SDS011;37815;52.692;6.226;2022-09-16T05:49:52;1.77;;;0.22;;
51738;SDS011;37815;52.692;6.226;2022-09-16T05:54:53;1.48;;;0.40;;
51738;SDS011;37815;52.692;6.226;2022-09-16T05:59:54;1.77;;;0.40;;
51738;SDS011;37815;52.692;6.226;2022-09-16T06:04:55;1.30;;;0.30;;
51738;SDS011;37815;52.692;6.226;2022-09-16T06:09:56;1.00;;;0.52;;
51738;SDS011;37815;52.692;6.226;2022-09-16T06:14:57;2.97;;;0.32;;
51738;SDS011;37815;52.692;6.226;2022-09-16T06:19:57;3.47;;;0.50;;
51738;SDS011;37815;52.692;6.226;2022-09-16T06:24:58;1.85;;;0.45;;
51738;SDS011;37815;52.692;6.226;2022-09-16T06:29:59;1.50;;;0.40;;
51738;SDS011;37815;52.692;6.226;2022-09-16T06:35:00;2.65;;;0.60;;
51738;SDS011;37815;52.692;6.226;2022-09-16T06:40:01;3.00;;;0.50;;
51738;SDS011;37815;52.692;6.226;2022-09-16T06:45:02;1.42;;;0.45;;
51738;SDS011;37815;52.692;6.226;2022-09-16T06:50:04;1.92;;;0.40;;
51738;SDS011;37815;52.692;6.226;2022-09-16T06:55:05;1.92;;;0.45;;
51738;SDS011;37815;52.692;6.226;2022-09-16T07:00:06;1.20;;;0.30;;
51738;SDS011;37815;52.692;6.226;2022-09-16T07:05:07;3.63;;;0.35;;
51738;SDS011;37815;52.692;6.226;2022-09-16T07:10:12;1.17;;;0.40;;
51738;SDS011;37815;52.692;6.226;2022-09-16T07:15:13;2.65;;;0.63;;
51738;SDS011;37815;52.692;6.226;2022-09-16T07:20:14;2.80;;;0.40;;
51738;SDS011;37815;52.692;6.226;2022-09-16T07:25:15;1.77;;;0.70;;
51738;SDS011;37815;52.692;6.226;2022-09-16T07:30:16;1.13;;;0.60;;
51738;SDS011;37815;52.692;6.226;2022-09-16T07:35:17;1.38;;;0.30;;
51738;SDS011;37815;52.692;6.226;2022-09-16T07:40:17;1.13;;;0.40;;
51738;SDS011;37815;52.692;6.226;2022-09-16T07:45:18;1.70;;;0.40;;
51738;SDS011;37815;52.692;6.226;2022-09-16T07:50:19;2.00;;;0.40;;
51738;SDS011;37815;52.692;6.226;2022-09-16T07:55:19;1.70;;;0.47;;
51738;SDS011;37815;52.692;6.226;2022-09-16T08:00:20;0.57;;;0.20;;
51738;SDS011;37815;52.692;6.226;2022-09-16T08:05:21;1.73;;;0.40;;
51738;SDS011;37815;52.692;6.226;2022-09-16T08:10:21;1.95;;;0.40;;
51738;SDS011;37815;52.692;6.226;2022-09-16T08:15:22;2.65;;;0.70;;
51738;SDS011;37815;52.692;6.226;2022-09-16T08:20:23;1.50;;;0.30;;
51738;SDS011;37815;52.692;6.226;2022-09-16T08:25:25;1.15;;;0.35;;
51738;SDS011;37815;52.692;6.226;2022-09-16T08:30:26;4.43;;;0.93;;
51738;SDS011;37815;52.692;6.226;2022-09-16T08:35:29;3.75;;;0.40;;
51738;SDS011;37815;52.692;6.226;2022-09-16T08:40:32;2.05;;;1.20;;
51738;SDS011;37815;52.692;6.226;2022-09-16T08:45:43;1.08;;;0.45;;
51738;SDS011;37815;52.692;6.226;2022-09-16T08:50:52;1.10;;;0.30;;
51738;SDS011;37815;52.692;6.226;2022-09-16T08:55:54;2.47;;;0.38;;
51738;SDS011;37815;52.692;6.226;2022-09-16T09:00:56;1.65;;;0.43;;
51738;SDS011;37815;52.692;6.226;2022-09-16T09:06:02;0.73;;;0.32;;
51738;SDS011;37815;52.692;6.226;2022-09-16T09:21:40;1.63;;;0.55;;
51738;SDS011;37815;52.692;6.226;2022-09-16T09:26:50;5.30;;;0.80;;
51738;SDS011;37815;52.692;6.226;2022-09-16T09:31:56;3.55;;;0.60;;
51738;SDS011;37815;52.692;6.226;2022-09-16T09:42:24;2.90;;;0.50;;
51738;SDS011;37815;52.692;6.226;2022-09-16T09:53:12;2.00;;;0.55;;
51738;SDS011;37815;52.692;6.226;2022-09-16T09:58:34;4.45;;;0.75;;
51738;SDS011;37815;52.692;6.226;2022-09-16T10:03:40;3.38;;;0.65;;
51738;SDS011;37815;52.692;6.226;2022-09-16T10:08:45;1.77;;;0.40;;
51738;SDS011;37815;52.692;6.226;2022-09-16T10:13:52;2.72;;;0.65;;
51738;SDS011;37815;52.692;6.226;2022-09-16T10:19:02;2.08;;;0.55;;
51738;SDS011;37815;52.692;6.226;2022-09-16T10:24:25;3.75;;;0.70;;
51738;SDS011;37815;52.692;6.226;2022-09-16T10:29:34;4.00;;;1.00;;
51738;SDS011;37815;52.692;6.226;2022-09-16T10:34:36;3.28;;;0.65;;
51738;SDS011;37815;52.692;6.226;2022-09-16T10:39:39;3.22;;;0.60;;
51738;SDS011;37815;52.692;6.226;2022-09-16T10:44:43;2.97;;;0.68;;
51738;SDS011;37815;52.692;6.226;2022-09-16T10:49:51;2.70;;;0.77;;
51738;SDS011;37815;52.692;6.226;2022-09-16T10:55:08;2.05;;;0.40;;
51738;SDS011;37815;52.692;6.226;2022-09-16T11:10:47;4.43;;;0.73;;
51738;SDS011;37815;52.692;6.226;2022-09-16T11:38:09;8.65;;;1.02;;
51738;SDS011;37815;52.692;6.226;2022-09-16T11:43:05;3.33;;;0.65;;
51738;SDS011;37815;52.692;6.226;2022-09-16T12:04:33;2.33;;;0.50;;
51738;SDS011;37815;52.692;6.226;2022-09-16T12:09:44;1.17;;;0.50;;
51738;SDS011;37815;52.692;6.226;2022-09-16T12:15:14;2.20;;;0.50;;
51738;SDS011;37815;52.692;6.226;2022-09-16T12:20:32;3.67;;;0.52;;
51738;SDS011;37815;52.692;6.226;2022-09-16T12:25:39;2.60;;;0.40;;
51738;SDS011;37815;52.692;6.226;2022-09-16T12:30:46;2.90;;;0.60;;
51738;SDS011;37815;52.692;6.226;2022-09-16T12:35:56;3.33;;;0.88;;
51738;SDS011;37815;52.692;6.226;2022-09-16T12:46:31;2.83;;;0.52;;
51738;SDS011;37815;52.692;6.226;2022-09-16T13:02:19;2.90;;;0.50;;
51738;SDS011;37815;52.692;6.226;2022-09-16T13:07:25;1.00;;;0.43;;
51738;SDS011;37815;52.692;6.226;2022-09-16T13:17:34;3.45;;;0.98;;
51738;SDS011;37815;52.692;6.226;2022-09-16T13:33:26;5.43;;;1.10;;
51738;SDS011;37815;52.692;6.226;2022-09-16T13:38:37;4.70;;;0.70;;
51738;SDS011;37815;52.692;6.226;2022-09-16T13:54:17;3.90;;;0.55;;
51738;SDS011;37815;52.692;6.226;2022-09-16T14:10:20;6.88;;;0.80;;
51738;SDS011;37815;52.692;6.226;2022-09-16T14:15:22;3.33;;;0.82;;
51738;SDS011;37815;52.692;6.226;2022-09-16T14:20:24;3.08;;;0.60;;
51738;SDS011;37815;52.692;6.226;2022-09-16T14:25:27;5.35;;;0.98;;
51738;SDS011;37815;52.692;6.226;2022-09-16T14:30:32;3.80;;;0.50;;
51738;SDS011;37815;52.692;6.226;2022-09-16T14:35:33;3.15;;;0.70;;
51738;SDS011;37815;52.692;6.226;2022-09-16T14:40:34;3.28;;;0.75;;
51738;SDS011;37815;52.692;6.226;2022-09-16T14:45:38;4.93;;;1.02;;
51738;SDS011;37815;52.692;6.226;2022-09-16T14:50:46;4.50;;;1.10;;
51738;SDS011;37815;52.692;6.226;2022-09-16T14:55:48;3.97;;;0.93;;
51738;SDS011;37815;52.692;6.226;2022-09-16T15:06:04;6.38;;;1.33;;
51738;SDS011;37815;52.692;6.226;2022-09-16T15:11:11;6.78;;;0.75;;
51738;SDS011;37815;52.692;6.226;2022-09-16T15:16:15;11.88;;;1.40;;
51738;SDS011;37815;52.692;6.226;2022-09-16T15:21:20;11.07;;;1.33;;
51738;SDS011;37815;52.692;6.226;2022-09-16T15:26:42;9.68;;;1.20;;
51738;SDS011;37815;52.692;6.226;2022-09-16T15:31:45;7.72;;;1.23;;
51738;SDS011;37815;52.692;6.226;2022-09-16T15:36:47;8.63;;;1.40;;
51738;SDS011;37815;52.692;6.226;2022-09-16T15:41:48;7.72;;;1.85;;
51738;SDS011;37815;52.692;6.226;2022-09-16T15:46:49;7.95;;;1.15;;
51738;SDS011;37815;52.692;6.226;2022-09-16T15:51:50;3.50;;;0.88;;
51738;SDS011;37815;52.692;6.226;2022-09-16T15:56:54;7.63;;;1.17;;
51738;SDS011;37815;52.692;6.226;2022-09-16T16:02:24;4.20;;;1.27;;
51738;SDS011;37815;52.692;6.226;2022-09-16T16:07:42;4.53;;;0.85;;
51738;SDS011;37815;52.692;6.226;2022-09-16T16:12:46;6.30;;;0.93;;
51738;SDS011;37815;52.692;6.226;2022-09-16T16:17:47;5.63;;;0.95;;
51738;SDS011;37815;52.692;6.226;2022-09-16T16:22:49;3.70;;;0.90;;
51738;SDS011;37815;52.692;6.226;2022-09-16T16:27:50;4.55;;;0.75;;
51738;SDS011;37815;52.692;6.226;2022-09-16T16:32:50;5.30;;;0.98;;
51738;SDS011;37815;52.692;6.226;2022-09-16T16:37:54;6.80;;;1.23;;
51738;SDS011;37815;52.692;6.226;2022-09-16T16:42:57;3.78;;;1.13;;
51738;SDS011;37815;52.692;6.226;2022-09-16T16:47:58;2.75;;;0.88;;
51738;SDS011;37815;52.692;6.226;2022-09-16T16:52:59;4.97;;;1.00;;
51738;SDS011;37815;52.692;6.226;2022-09-16T16:58:00;5.72;;;1.00;;
51738;SDS011;37815;52.692;6.226;2022-09-16T17:03:01;4.00;;;0.98;;
51738;SDS011;37815;52.692;6.226;2022-09-16T17:08:01;2.05;;;0.73;;
51738;SDS011;37815;52.692;6.226;2022-09-16T17:13:02;4.57;;;1.23;;
51738;SDS011;37815;52.692;6.226;2022-09-16T17:18:03;7.03;;;1.15;;
51738;SDS011;37815;52.692;6.226;2022-09-16T17:23:03;3.67;;;1.10;;
51738;SDS011;37815;52.692;6.226;2022-09-16T17:28:07;8.57;;;1.35;;
51738;SDS011;37815;52.692;6.226;2022-09-16T17:33:07;7.75;;;1.30;;
51738;SDS011;37815;52.692;6.226;2022-09-16T17:38:08;6.55;;;1.33;;
51738;SDS011;37815;52.692;6.226;2022-09-16T17:43:09;5.50;;;1.10;;
51738;SDS011;37815;52.692;6.226;2022-09-16T17:48:10;3.22;;;1.30;;
51738;SDS011;37815;52.692;6.226;2022-09-16T17:53:10;4.55;;;1.38;;
51738;SDS011;37815;52.692;6.226;2022-09-16T17:58:11;7.40;;;1.13;;
51738;SDS011;37815;52.692;6.226;2022-09-16T18:03:12;3.03;;;1.10;;
51738;SDS011;37815;52.692;6.226;2022-09-16T18:08:13;3.30;;;0.85;;
51738;SDS011;37815;52.692;6.226;2022-09-16T18:13:13;3.30;;;0.90;;
51738;SDS011;37815;52.692;6.226;2022-09-16T18:18:14;3.22;;;0.90;;
51738;SDS011;37815;52.692;6.226;2022-09-16T18:23:17;6.45;;;1.20;;
51738;SDS011;37815;52.692;6.226;2022-09-16T18:28:17;5.40;;;1.33;;
51738;SDS011;37815;52.692;6.226;2022-09-16T18:33:18;5.28;;;1.02;;
51738;SDS011;37815;52.692;6.226;2022-09-16T18:38:19;4.03;;;1.35;;
51738;SDS011;37815;52.692;6.226;2022-09-16T18:43:19;3.13;;;1.10;;
51738;SDS011;37815;52.692;6.226;2022-09-16T18:48:20;3.10;;;0.65;;
51738;SDS011;37815;52.692;6.226;2022-09-16T18:53:21;3.97;;;1.25;;
51738;SDS011;37815;52.692;6.226;2022-09-16T18:58:22;4.50;;;1.10;;
51738;SDS011;37815;52.692;6.226;2022-09-16T19:03:22;3.72;;;0.70;;
51738;SDS011;37815;52.692;6.226;2022-09-16T19:08:23;2.80;;;0.95;;
51738;SDS011;37815;52.692;6.226;2022-09-16T19:13:24;2.17;;;0.90;;
51738;SDS011;37815;52.692;6.226;2022-09-16T19:18:24;5.93;;;1.80;;
51738;SDS011;37815;52.692;6.226;2022-09-16T19:23:27;3.25;;;1.00;;
51738;SDS011;37815;52.692;6.226;2022-09-16T19:28:29;2.13;;;0.80;;
51738;SDS011;37815;52.692;6.226;2022-09-16T19:33:30;4.07;;;1.27;;
51738;SDS011;37815;52.692;6.226;2022-09-16T19:38:31;2.25;;;0.80;;
51738;SDS011;37815;52.692;6.226;2022-09-16T19:43:34;2.75;;;0.82;;
51738;SDS011;37815;52.692;6.226;2022-09-16T19:48:36;2.53;;;0.60;;
51738;SDS011;37815;52.692;6.226;2022-09-16T19:53:38;1.75;;;0.60;;
51738;SDS011;37815;52.692;6.226;2022-09-16T19:58:40;4.63;;;1.52;;
51738;SDS011;37815;52.692;6.226;2022-09-16T20:03:41;2.75;;;1.00;;
51738;SDS011;37815;52.692;6.226;2022-09-16T20:08:45;4.13;;;1.15;;
51738;SDS011;37815;52.692;6.226;2022-09-16T20:13:57;3.08;;;0.70;;
51738;SDS011;37815;52.692;6.226;2022-09-16T20:18:59;3.10;;;1.00;;
51738;SDS011;37815;52.692;6.226;2022-09-16T20:24:01;2.22;;;0.88;;
51738;SDS011;37815;52.692;6.226;2022-09-16T20:29:04;2.78;;;0.77;;
51738;SDS011;37815;52.692;6.226;2022-09-16T20:34:05;2.95;;;0.88;;
51738;SDS011;37815;52.692;6.226;2022-09-16T20:39:06;2.35;;;0.90;;
51738;SDS011;37815;52.692;6.226;2022-09-16T20:44:11;3.72;;;0.85;;
51738;SDS011;37815;52.692;6.226;2022-09-16T20:49:14;2.92;;;0.88;;
51738;SDS011;37815;52.692;6.226;2022-09-16T20:54:16;3.95;;;0.90;;
51738;SDS011;37815;52.692;6.226;2022-09-16T20:59:17;2.75;;;0.70;;
51738;SDS011;37815;52.692;6.226;2022-09-16T21:04:19;4.82;;;1.25;;
51738;SDS011;37815;52.692;6.226;2022-09-16T21:09:20;4.15;;;1.00;;
51738;SDS011;37815;52.692;6.226;2022-09-16T21:14:21;5.05;;;0.90;;
51738;SDS011;37815;52.692;6.226;2022-09-16T21:19:21;2.58;;;1.00;;
51738;SDS011;37815;52.692;6.226;2022-09-16T21:24:22;3.17;;;0.80;;
51738;SDS011;37815;52.692;6.226;2022-09-16T21:29:23;3.85;;;0.88;;
51738;SDS011;37815;52.692;6.226;2022-09-16T21:34:24;4.00;;;0.77;;
51738;SDS011;37815;52.692;6.226;2022-09-16T21:39:25;5.97;;;1.05;;
51738;SDS011;37815;52.692;6.226;2022-09-16T21:44:27;5.20;;;2.05;;
51738;SDS011;37815;52.692;6.226;2022-09-16T21:49:27;3.20;;;0.63;;
51738;SDS011;37815;52.692;6.226;2022-09-16T21:54:29;5.03;;;0.93;;
51738;SDS011;37815;52.692;6.226;2022-09-16T21:59:31;11.65;;;2.15;;
51738;SDS011;37815;52.692;6.226;2022-09-16T22:04:32;4.88;;;0.85;;
51738;SDS011;37815;52.692;6.226;2022-09-16T22:09:32;1.88;;;0.90;;
51738;SDS011;37815;52.692;6.226;2022-09-16T22:14:33;5.47;;;1.55;;
51738;SDS011;37815;52.692;6.226;2022-09-16T22:19:34;4.40;;;0.95;;
51738;SDS011;37815;52.692;6.226;2022-09-16T22:24:34;4.38;;;0.93;;
51738;SDS011;37815;52.692;6.226;2022-09-16T22:29:35;5.32;;;1.08;;
51738;SDS011;37815;52.692;6.226;2022-09-16T22:34:36;4.88;;;0.98;;
51738;SDS011;37815;52.692;6.226;2022-09-16T22:39:37;5.82;;;0.80;;
51738;SDS011;37815;52.692;6.226;2022-09-16T22:44:37;5.68;;;2.05;;
51738;SDS011;37815;52.692;6.226;2022-09-16T22:49:38;4.22;;;0.95;;
51738;SDS011;37815;52.692;6.226;2022-09-16T22:54:39;5.40;;;1.02;;
51738;SDS011;37815;52.692;6.226;2022-09-16T22:59:40;3.80;;;0.80;;
51738;SDS011;37815;52.692;6.226;2022-09-16T23:04:40;4.05;;;1.00;;
51738;SDS011;37815;52.692;6.226;2022-09-16T23:09:41;4.40;;;0.80;;
51738;SDS011;37815;52.692;6.226;2022-09-16T23:14:42;3.97;;;1.52;;
51738;SDS011;37815;52.692;6.226;2022-09-16T23:19:43;4.97;;;0.90;;
51738;SDS011;37815;52.692;6.226;2022-09-16T23:24:44;8.75;;;1.40;;
51738;SDS011;37815;52.692;6.226;2022-09-16T23:29:45;6.28;;;1.17;;
51738;SDS011;37815;52.692;6.226;2022-09-16T23:34:46;4.70;;;1.45;;
51738;SDS011;37815;52.692;6.226;2022-09-16T23:39:46;3.08;;;0.93;;
51738;SDS011;37815;52.692;6.226;2022-09-16T23:44:47;8.98;;;2.10;;
51738;SDS011;37815;52.692;6.226;2022-09-16T23:49:48;6.40;;;1.20;;
51738;SDS011;37815;52.692;6.226;2022-09-16T23:54:49;3.45;;;1.00;;
51738;SDS011;37815;52.692;6.226;2022-09-16T23:59:49;3.97;;;0.80;;
